Time;durP1;ratioP1;P1;durP2;ratioP2;P2;SDS_P1;SDS_P2;PMS_P1;PMS_P2;Temp;Humidity;BMP_temperature;BMP_pressure;BME280_temperature;BME280_humidity;BME280_pressure;Samples;Min_cycle;Max_cycle;Signal;HPM_P1;HPM_P2
2022/11/21 00:02:53;;;;;;;1.30;1.30;;;;;;;9.53;59.92;97977.09;6978387;28;20226;-81
2022/11/21 00:06:16;;;;;;;1.93;1.83;;;;;;;8.92;60.76;97881.13;6977897;28;20250;-82
2022/11/21 00:09:40;;;;;;;1.40;1.40;;;;;;;9.07;61.11;97916.63;6979340;28;20210;-81
2022/11/21 00:13:02;;;;;;;1.80;1.70;;;;;;;8.97;60.60;97903.66;6979778;28;20203;-80
2022/11/21 00:16:25;;;;;;;2.90;1.70;;;;;;;9.07;60.87;97882.47;6979424;28;20280;-80
2022/11/21 00:19:47;;;;;;;1.70;1.60;;;;;;;9.74;60.64;97980.22;6980030;28;20659;-81
2022/11/21 00:23:10;;;;;;;1.80;1.70;;;;;;;10.09;59.87;97989.47;6978490;28;20258;-81
2022/11/21 00:26:32;;;;;;;1.60;1.60;;;;;;;9.68;60.22;97964.97;6978662;28;20687;-81
2022/11/21 00:29:53;;;;;;;1.73;1.63;;;;;;;9.92;59.89;97990.25;6979501;28;20302;-81
2022/11/21 00:33:15;;;;;;;1.60;1.50;;;;;;;9.31;60.94;97962.34;6979862;28;20226;-80
2022/11/21 00:36:36;;;;;;;1.27;1.27;;;;;;;9.73;59.47;97970.50;6978940;28;20697;-80
2022/11/21 00:39:59;;;;;;;1.40;1.40;;;;;;;10.02;59.07;97955.53;6980524;28;20301;-81
2022/11/21 00:43:21;;;;;;;1.53;1.43;;;;;;;10.17;57.84;97970.31;6980665;28;20305;-81
2022/11/21 00:46:42;;;;;;;1.63;1.53;;;;;;;10.56;57.14;97939.44;6982462;28;20253;-80
2022/11/21 00:50:04;;;;;;;1.50;1.50;;;;;;;10.78;56.26;97956.78;6982125;28;20241;-80
2022/11/21 00:53:26;;;;;;;1.30;1.30;;;;;;;10.52;56.42;97947.13;6982785;28;20289;-81
2022/11/21 00:56:49;;;;;;;1.50;1.40;;;;;;;10.87;55.65;97934.66;6979005;28;20683;-80
2022/11/21 01:00:11;;;;;;;1.60;1.50;;;;;;;10.03;57.79;97909.56;6978787;28;20730;-81
2022/11/21 01:03:34;;;;;;;1.30;1.30;;;;;;;9.72;58.94;97931.19;6982602;28;20222;-81
2022/11/21 01:06:55;;;;;;;1.70;1.47;;;;;;;9.85;59.26;97931.06;6978902;28;20368;-80
2022/11/21 01:10:17;;;;;;;1.50;1.50;;;;;;;9.19;60.18;97895.00;6978736;28;20233;-81
2022/11/21 01:13:40;;;;;;;1.37;1.37;;;;;;;9.62;59.30;97920.09;6977836;28;20744;-81
2022/11/21 01:17:02;;;;;;;1.33;1.33;;;;;;;9.07;60.42;97881.66;6976718;28;20253;-81
2022/11/21 01:20:24;;;;;;;1.50;1.47;;;;;;;9.17;59.42;97872.06;6977827;28;20221;-81
2022/11/21 01:23:50;;;;;;;1.47;1.37;;;;;;;9.47;58.97;97881.09;6977111;28;20236;-80
2022/11/21 01:27:11;;;;;;;1.50;1.50;;;;;;;8.96;58.84;97810.56;6976804;28;20760;-81
2022/11/21 01:30:34;;;;;;;1.23;1.23;;;;;;;9.58;58.18;97880.41;6977198;28;20220;-81
2022/11/21 01:33:58;;;;;;;1.80;1.70;;;;;;;9.00;59.46;97758.03;6977254;28;20201;-81
2022/11/21 01:37:19;;;;;;;3.03;1.60;;;;;;;9.84;60.07;97929.41;6977228;28;20246;-81
2022/11/21 01:40:41;;;;;;;3.20;1.70;;;;;;;9.78;60.26;97921.38;6978480;28;20213;-81
2022/11/21 01:44:09;;;;;;;2.73;2.03;;;;;;;9.98;60.40;97903.19;6978500;28;20264;-80
2022/11/21 01:47:32;;;;;;;1.87;1.70;;;;;;;10.05;60.52;97907.47;6976510;28;20287;-81
2022/11/21 01:50:55;;;;;;;1.77;1.67;;;;;;;10.05;60.72;97909.34;6977180;28;20237;-81
2022/11/21 01:54:19;;;;;;;1.73;1.67;;;;;;;10.05;61.00;97920.94;6976871;28;20202;-80
2022/11/21 01:57:42;;;;;;;1.67;1.57;;;;;;;9.72;60.97;97922.28;6976324;28;20254;-80
2022/11/21 02:01:04;;;;;;;2.70;1.73;;;;;;;9.74;60.43;97920.22;6976815;28;20237;-81
2022/11/21 02:04:28;;;;;;;2.73;1.50;;;;;;;9.89;60.76;97924.19;6976809;28;20229;-80
2022/11/21 02:07:52;;;;;;;1.90;1.80;;;;;;;10.07;59.95;97899.19;6975940;28;20302;-80
2022/11/21 02:11:18;;;;;;;2.70;1.70;;;;;;;9.92;61.63;97922.94;6976950;28;20296;-80
2022/11/21 02:14:42;;;;;;;1.63;1.60;;;;;;;10.08;60.22;97920.50;6991160;28;20172;-80
2022/11/21 02:18:11;;;;;;;2.93;1.80;;;;;;;9.48;61.02;97859.38;6989261;28;20232;-79
2022/11/21 02:21:41;;;;;;;2.97;2.00;;;;;;;9.96;61.08;97907.97;6985802;28;20221;-80
2022/11/21 02:25:07;;;;;;;3.33;1.73;;;;;;;10.26;59.95;97900.81;6990617;28;20194;-80
2022/11/21 02:28:30;;;;;;;1.40;1.40;;;;;;;10.19;60.70;97906.31;6996662;28;20241;-80
2022/11/21 02:31:59;;;;;;;2.57;1.80;;;;;;;9.64;61.78;97880.31;6990429;28;20285;-80
2022/11/21 02:35:21;;;;;;;2.83;2.43;;;;;;;9.72;60.53;97826.22;6999443;28;20232;-79
2022/11/21 02:38:48;;;;;;;1.80;1.70;;;;;;;9.45;61.80;97896.66;6998444;28;20232;-80
2022/11/21 02:42:22;;;;;;;1.53;1.50;;;;;;;10.07;61.34;97899.19;6994407;28;20291;-80
2022/11/21 02:45:51;;;;;;;2.37;1.60;;;;;;;9.90;60.84;97900.78;6976754;28;20215;-79
2022/11/21 02:49:18;;;;;;;2.30;1.70;;;;;;;10.02;60.59;97907.06;6995467;28;20201;-79
2022/11/21 02:52:40;;;;;;;1.77;1.63;;;;;;;9.94;60.46;97883.13;6994920;28;20214;-79
2022/11/21 02:56:04;;;;;;;1.40;1.40;;;;;;;9.89;60.59;97866.81;6999892;28;20210;-79
2022/11/21 02:59:27;;;;;;;1.73;1.63;;;;;;;9.44;60.25;97807.03;6986554;28;20195;-80
2022/11/21 03:02:49;;;;;;;1.53;1.53;;;;;;;9.86;60.38;97854.63;6997022;28;20225;-79
2022/11/21 03:06:13;;;;;;;1.83;1.73;;;;;;;9.73;59.64;97800.09;6997426;28;20230;-79
2022/11/21 03:09:38;;;;;;;1.63;1.53;;;;;;;10.17;59.47;97851.81;7002066;28;20193;-79
2022/11/21 03:13:03;;;;;;;1.90;1.80;;;;;;;10.26;58.01;97798.47;7002667;28;20269;-79
2022/11/21 03:16:27;;;;;;;2.33;1.67;;;;;;;10.25;59.15;97837.22;7000384;28;20242;-79
2022/11/21 03:19:48;;;;;;;1.87;1.70;;;;;;;10.65;58.56;97844.56;7001473;28;20212;-79
2022/11/21 03:23:10;;;;;;;1.73;1.63;;;;;;;10.54;58.88;97861.50;6983415;28;20296;-80
2022/11/21 03:26:31;;;;;;;2.07;1.80;;;;;;;10.36;58.31;97791.50;6978377;28;20236;-80
2022/11/21 03:29:53;;;;;;;1.70;1.60;;;;;;;10.83;57.98;97852.59;6979323;28;20266;-80
2022/11/21 03:33:16;;;;;;;2.63;1.70;;;;;;;10.23;58.12;97848.25;6980044;28;20683;-80
2022/11/21 03:36:37;;;;;;;1.87;1.77;;;;;;;10.41;58.40;97856.31;6996362;28;20226;-80
2022/11/21 03:39:59;;;;;;;1.80;1.50;;;;;;;10.12;59.15;97857.06;6988402;28;20202;-79
2022/11/21 03:43:20;;;;;;;1.77;1.70;;;;;;;10.25;58.20;97859.59;6988437;28;20225;-80
2022/11/21 03:46:44;;;;;;;1.43;1.43;;;;;;;10.30;58.77;97861.63;6986648;28;20254;-80
2022/11/21 03:50:08;;;;;;;3.07;2.20;;;;;;;10.78;57.27;97854.31;6985578;28;20210;-80
2022/11/21 03:53:30;;;;;;;2.27;2.10;;;;;;;10.16;58.31;97814.34;6986225;28;20593;-80
2022/11/21 03:56:51;;;;;;;1.73;1.63;;;;;;;10.12;57.45;97843.63;6987873;28;20594;-80
2022/11/21 04:00:14;;;;;;;1.30;1.30;;;;;;;10.07;58.49;97848.00;6983492;28;20586;-80
2022/11/21 04:03:36;;;;;;;1.40;1.40;;;;;;;10.78;56.45;97857.84;6990589;28;20230;-81
2022/11/21 04:06:59;;;;;;;1.53;1.53;;;;;;;10.26;57.96;97845.09;6983395;28;20313;-81
2022/11/21 04:10:20;;;;;;;1.57;1.40;;;;;;;10.55;56.97;97854.22;6980741;28;20219;-80
2022/11/21 04:13:42;;;;;;;1.33;1.33;;;;;;;9.95;58.45;97837.16;6980279;28;20288;-81
2022/11/21 04:17:03;;;;;;;1.93;1.80;;;;;;;9.59;58.62;97751.03;6978763;28;20304;-80
2022/11/21 04:20:25;;;;;;;1.50;1.40;;;;;;;10.35;58.04;97843.75;6980212;28;20236;-80
2022/11/21 04:23:48;;;;;;;1.77;1.67;;;;;;;10.32;58.19;97843.34;6979172;28;20233;-81
2022/11/21 04:27:09;;;;;;;2.03;1.93;;;;;;;9.88;59.21;97814.88;6979398;28;20313;-81
2022/11/21 04:30:32;;;;;;;2.83;1.80;;;;;;;10.06;59.45;97822.97;6990473;28;20211;-80
2022/11/21 04:33:54;;;;;;;1.30;1.30;;;;;;;10.38;58.52;97832.50;6979831;28;20260;-81
2022/11/21 04:37:17;;;;;;;1.60;1.57;;;;;;;10.10;59.09;97826.84;6979734;28;20324;-80
2022/11/21 04:40:40;;;;;;;2.60;1.50;;;;;;;9.65;58.58;97731.28;6984374;28;20213;-81
2022/11/21 04:44:01;;;;;;;2.00;1.80;;;;;;;10.02;59.65;97837.06;6979992;28;20248;-80
2022/11/21 04:47:23;;;;;;;1.80;1.70;;;;;;;10.13;60.03;97828.25;6978597;28;20345;-80
2022/11/21 04:50:45;;;;;;;3.43;2.17;;;;;;;9.87;58.77;97761.25;6977461;28;20245;-80
2022/11/21 04:54:06;;;;;;;1.67;1.57;;;;;;;8.98;60.08;97692.09;6978191;28;20230;-81
2022/11/21 04:57:30;;;;;;;1.60;1.50;;;;;;;10.29;59.39;97835.72;6977753;28;20225;-81
2022/11/21 05:00:51;;;;;;;1.87;1.70;;;;;;;10.15;58.93;97831.56;6977924;28;20690;-80
2022/11/21 05:04:13;;;;;;;1.60;1.50;;;;;;;10.20;59.17;97839.75;7004395;28;20256;-80
2022/11/21 05:07:35;;;;;;;2.07;1.70;;;;;;;9.98;59.03;97773.94;7004319;28;20233;-81
2022/11/21 05:14:39;;;;;;;2.87;1.90;;;;;;;9.86;58.31;97757.72;6999822;28;20193;-81
2022/11/21 05:18:01;;;;;;;1.47;1.37;;;;;;;10.22;58.57;97816.94;7003950;28;20227;-80
2022/11/21 05:21:22;;;;;;;2.10;1.90;;;;;;;10.41;58.29;97815.88;7003898;28;20635;-80
2022/11/21 05:24:50;;;;;;;1.90;1.80;;;;;;;10.62;57.15;97818.06;6986887;28;20758;-81
2022/11/21 05:28:11;;;;;;;2.37;1.80;;;;;;;10.70;57.35;97846.56;6977011;28;20286;-81
2022/11/21 05:31:34;;;;;;;1.90;1.63;;;;;;;11.10;56.47;97843.03;6979843;28;20235;-80
2022/11/21 05:34:56;;;;;;;1.60;1.50;;;;;;;10.99;56.61;97835.75;7004029;28;20247;-81
2022/11/21 05:38:17;;;;;;;1.63;1.53;;;;;;;11.31;55.60;97817.38;6995165;28;20262;-82
2022/11/21 05:41:39;;;;;;;1.77;1.67;;;;;;;11.00;56.50;97823.09;7019635;28;20254;-82
2022/11/21 05:44:59;;;;;;;1.73;1.63;;;;;;;11.07;56.56;97850.78;7008817;28;20698;-82
2022/11/21 05:48:22;;;;;;;2.20;1.73;;;;;;;10.54;57.56;97844.50;6977986;28;20222;-81
2022/11/21 05:51:44;;;;;;;1.77;1.60;;;;;;;10.94;57.20;97865.31;7003068;28;20244;-81
2022/11/21 05:55:06;;;;;;;2.20;1.80;;;;;;;10.94;57.26;97865.31;7003218;28;20229;-82
2022/11/21 05:58:28;;;;;;;2.47;1.67;;;;;;;11.11;56.61;97866.25;7004580;28;20253;-81
2022/11/21 06:05:31;;;;;;;1.80;1.70;;;;;;;11.02;56.99;97864.13;7003644;28;20217;-82
2022/11/21 06:08:52;;;;;;;2.43;1.90;;;;;;;11.07;55.88;97870.50;6976009;28;20273;-82
2022/11/21 06:12:14;;;;;;;1.70;1.60;;;;;;;10.84;56.03;97818.34;6975859;28;20252;-81
2022/11/21 06:15:37;;;;;;;1.87;1.63;;;;;;;10.97;55.88;97855.91;6993970;28;20232;-82
2022/11/21 06:18:58;;;;;;;2.27;1.67;;;;;;;10.80;56.90;97857.63;7001837;28;20304;-82
2022/11/21 06:22:21;;;;;;;1.97;1.83;;;;;;;10.70;56.87;97843.88;7004307;28;20290;-81
2022/11/21 06:29:05;;;;;;;2.37;1.70;;;;;;;11.15;55.45;97858.56;7058757;28;20220;-80
2022/11/21 06:32:27;;;;;;;2.70;2.33;;;;;;;11.01;55.98;97863.31;7061369;28;20298;-80
2022/11/21 06:35:48;;;;;;;2.77;2.40;;;;;;;11.08;55.74;97844.31;7060238;28;20311;-80
2022/11/21 06:39:11;;;;;;;2.07;1.90;;;;;;;10.55;56.48;97873.94;7060472;28;20225;-81
2022/11/21 06:42:33;;;;;;;2.30;2.10;;;;;;;10.68;56.71;97862.97;7062270;28;20235;-81
2022/11/21 06:45:55;;;;;;;5.10;3.10;;;;;;;10.44;57.47;97852.31;7042411;28;20682;-80
2022/11/21 06:49:17;;;;;;;2.30;2.00;;;;;;;10.43;57.75;97872.22;7032504;28;20266;-82
2022/11/21 06:52:38;;;;;;;1.90;1.70;;;;;;;10.79;57.17;97867.59;7033900;28;20239;-83
2022/11/21 06:56:02;;;;;;;2.13;1.70;;;;;;;11.13;55.29;97866.03;7034161;28;20654;-83
2022/11/21 06:59:23;;;;;;;3.13;1.73;;;;;;;11.17;55.42;97862.63;7049691;28;20205;-81
2022/11/21 07:02:45;;;;;;;3.03;1.70;;;;;;;11.25;55.86;97883.06;7064716;28;20565;-83
2022/11/21 07:06:09;;;;;;;1.70;1.60;;;;;;;11.39;55.28;97873.72;7059384;28;20225;-85
2022/11/21 07:09:32;;;;;;;2.90;1.70;;;;;;;10.75;56.35;97876.38;7035669;28;20256;-82
2022/11/21 07:16:37;;;;;;;2.13;1.90;;;;;;;10.77;57.52;97875.09;7042441;28;20223;-82
2022/11/21 07:19:59;;;;;;;2.40;2.00;;;;;;;10.85;56.83;97882.00;7044114;28;20698;-82
2022/11/21 07:23:20;;;;;;;2.40;2.00;;;;;;;10.75;57.07;97874.47;7043469;28;20320;-80
2022/11/21 07:26:42;;;;;;;3.20;1.90;;;;;;;10.22;57.47;97843.06;7048422;28;20224;-80
2022/11/21 07:30:06;;;;;;;2.17;1.70;;;;;;;10.38;57.69;97855.91;7033558;28;20213;-79
2022/11/21 07:33:28;;;;;;;2.23;2.00;;;;;;;10.57;57.57;97868.31;7035631;28;20318;-82
2022/11/21 07:36:49;;;;;;;2.10;2.00;;;;;;;9.86;57.64;97773.06;7035603;28;20231;-79
2022/11/21 07:40:12;;;;;;;6.50;4.17;;;;;;;10.07;58.40;97818.38;7038829;28;20262;-83
2022/11/21 07:43:34;;;;;;;5.60;2.23;;;;;;;10.48;57.42;97859.72;7038343;28;20241;-82
2022/11/21 07:46:56;;;;;;;3.17;2.07;;;;;;;10.52;57.60;97849.31;7063283;28;20217;-84
2022/11/21 07:50:18;;;;;;;4.40;2.20;;;;;;;11.15;55.52;97872.03;7077499;28;20201;-86
2022/11/21 07:53:40;;;;;;;2.87;2.50;;;;;;;11.00;55.68;97882.44;7052515;28;20208;-84
2022/11/21 07:57:06;;;;;;;2.23;2.00;;;;;;;11.02;56.22;97878.44;7085754;28;20226;-83
2022/11/21 08:00:28;;;;;;;4.37;2.20;;;;;;;10.79;55.87;97848.72;7072250;28;20561;-85
2022/11/21 08:03:51;;;;;;;2.33;1.73;;;;;;;11.25;54.55;97880.38;7075520;28;20217;-84
2022/11/21 08:07:13;;;;;;;3.37;1.83;;;;;;;10.87;55.45;97864.56;7072435;28;20227;-84
2022/11/21 08:10:40;;;;;;;3.20;2.00;;;;;;;11.23;54.71;97867.09;7068039;28;20341;-84
2022/11/21 08:14:01;;;;;;;1.90;1.80;;;;;;;11.49;54.11;97885.59;7058084;28;20218;-82
2022/11/21 08:17:23;;;;;;;3.83;2.13;;;;;;;11.60;54.10;97884.81;7061709;28;20240;-80
2022/11/21 08:20:46;;;;;;;2.80;1.73;;;;;;;12.84;51.93;97885.88;7061474;28;20242;-78
2022/11/21 08:24:12;;;;;;;2.10;1.90;;;;;;;16.02;43.47;97869.75;7060607;28;20380;-78
2022/11/21 08:27:33;;;;;;;3.17;2.00;;;;;;;17.40;40.00;97837.94;7059666;28;20605;-78
2022/11/21 08:30:55;;;;;;;1.73;1.60;;;;;;;18.93;36.33;97856.16;7061413;28;20259;-78
2022/11/21 08:34:16;;;;;;;1.70;1.60;;;;;;;18.86;36.37;97835.72;7061962;28;20225;-78
2022/11/21 08:37:39;;;;;;;2.47;1.97;;;;;;;18.16;37.23;97860.53;7052706;28;20214;-79
2022/11/21 08:44:40;;;;;;;3.23;2.00;;;;;;;15.36;42.18;97867.63;7037277;28;20214;-77
2022/11/21 08:48:01;;;;;;;5.00;2.60;;;;;;;14.19;44.15;97862.97;7048687;28;20250;-78
2022/11/21 08:51:23;;;;;;;4.27;2.13;;;;;;;13.33;47.25;97866.25;7061489;28;20233;-79
2022/11/21 08:54:46;;;;;;;4.70;2.60;;;;;;;13.13;47.35;97865.06;7060491;28;20680;-81
2022/11/21 08:58:07;;;;;;;2.93;1.90;;;;;;;12.95;47.66;97858.00;7061310;28;20253;-79
2022/11/21 09:01:29;;;;;;;4.80;2.13;;;;;;;12.41;49.64;97861.25;7060914;28;20240;-79
2022/11/21 09:04:52;;;;;;;8.30;2.60;;;;;;;12.85;48.31;97865.06;7049325;28;20458;-79
2022/11/21 09:08:13;;;;;;;3.37;1.90;;;;;;;12.47;49.14;97854.03;7052774;28;20588;-77
2022/11/21 09:11:36;;;;;;;2.47;1.93;;;;;;;12.66;49.15;97863.59;7061227;28;20248;-78
2022/11/21 09:18:52;;;;;;;4.23;2.60;;;;;;;13.89;47.42;97848.97;6974394;28;20603;-78
2022/11/21 09:22:13;;;;;;;4.43;2.10;;;;;;;14.36;45.64;97836.63;6985557;28;20208;-79
2022/11/21 09:25:35;;;;;;;4.17;2.03;;;;;;;14.84;44.18;97812.22;7059070;28;20752;-78
2022/11/21 09:28:58;;;;;;;5.70;2.20;;;;;;;13.73;45.87;97831.69;7060477;28;20212;-78
2022/11/21 09:32:20;;;;;;;3.90;2.20;;;;;;;13.67;46.34;97816.44;7055049;28;20219;-78
2022/11/21 09:35:41;;;;;;;5.87;2.30;;;;;;;13.53;46.80;97828.69;7060888;28;20223;-78
2022/11/21 09:39:03;;;;;;;3.03;2.00;;;;;;;13.92;45.91;97829.53;7062687;28;20244;-79
2022/11/21 09:42:55;;;;;;;3.80;2.90;;;;;;;14.02;46.59;97824.22;7064773;28;20209;-79
2022/11/21 09:46:19;;;;;;;3.33;2.13;;;;;;;14.03;45.41;97823.16;7063838;28;20231;-79
2022/11/21 09:49:43;;;;;;;5.67;2.40;;;;;;;14.41;44.99;97825.88;7061535;28;20200;-80
2022/11/21 09:53:06;;;;;;;5.87;2.30;;;;;;;13.59;46.54;97846.66;7084608;28;20204;-80
2022/11/21 09:56:31;;;;;;;3.17;1.93;;;;;;;13.03;47.38;97783.69;7067021;28;20269;-81
2022/11/21 09:59:53;;;;;;;12.83;2.90;;;;;;;13.77;46.50;97832.84;7057302;28;20221;-81
2022/11/21 10:03:15;;;;;;;20.93;3.70;;;;;;;14.40;46.04;97824.22;7038678;28;20208;-81
2022/11/21 10:06:43;;;;;;;29.03;5.77;;;;;;;13.98;46.24;97798.72;7049495;28;20249;-82
2022/11/21 10:10:17;;;;;;;41.93;5.80;;;;;;;14.86;44.90;97783.75;7073623;28;20258;-80
2022/11/21 10:13:49;;;;;;;37.07;7.07;;;;;;;15.39;43.45;97772.06;7042357;28;20209;-79
2022/11/21 10:17:18;;;;;;;4.53;2.10;;;;;;;14.65;44.70;97775.69;7033761;28;20226;-79
2022/11/21 10:20:52;;;;;;;14.80;3.33;;;;;;;15.90;44.52;97734.06;7055251;28;20204;-78
2022/11/21 10:24:22;;;;;;;25.37;4.30;;;;;;;16.55;42.29;97742.47;7036535;28;20313;-78
2022/11/21 10:27:49;;;;;;;52.43;6.23;;;;;;;15.46;43.24;97740.84;7063213;28;20327;-79
2022/11/21 10:31:13;;;;;;;3.47;2.37;;;;;;;14.73;44.72;97751.63;7063282;28;20676;-79
2022/11/21 10:34:36;;;;;;;3.13;1.73;;;;;;;15.82;43.49;97725.59;7062686;28;20649;-78
2022/11/21 10:38:01;;;;;;;71.50;9.40;;;;;;;16.07;42.13;97729.25;7062426;28;20224;-78
2022/11/21 10:41:34;;;;;;;5.80;2.30;;;;;;;16.04;41.72;97723.50;7065010;28;20196;-80
2022/11/21 10:45:18;;;;;;;17.70;3.57;;;;;;;15.77;42.46;97692.94;7055207;28;20248;-79
2022/11/21 10:48:39;;;;;;;7.17;2.47;;;;;;;15.49;42.49;97713.16;7055487;28;20594;-79
2022/11/21 10:52:05;;;;;;;15.87;3.27;;;;;;;15.49;43.53;97715.88;7057985;28;20242;-79
2022/11/21 10:55:28;;;;;;;3.37;2.30;;;;;;;15.33;42.87;97689.69;7053924;28;20265;-79
2022/11/21 10:58:51;;;;;;;8.97;2.60;;;;;;;15.31;43.12;97693.72;7037721;28;21884;-78
2022/11/21 11:02:23;;;;;;;4.53;1.97;;;;;;;14.78;43.25;97697.41;7057467;28;20231;-79
2022/11/21 11:05:55;;;;;;;3.00;1.90;;;;;;;15.50;42.59;97689.53;7053501;28;20249;-79
2022/11/21 11:09:29;;;;;;;5.23;2.30;;;;;;;15.90;41.93;97674.25;7060118;28;20193;-79
2022/11/21 11:16:32;;;;;;;6.60;2.17;;;;;;;16.72;40.76;97655.13;7055169;28;20217;-79
2022/11/21 11:20:02;;;;;;;3.20;2.20;;;;;;;16.79;39.32;97625.72;7030703;28;20890;-79
2022/11/21 11:23:26;;;;;;;5.03;1.83;;;;;;;16.95;38.84;97609.13;7042255;28;20726;-79
2022/11/21 11:26:55;;;;;;;4.30;1.90;;;;;;;17.21;39.23;97639.88;7037966;28;20878;-80
2022/11/21 11:30:20;;;;;;;4.10;1.97;;;;;;;16.61;39.97;97631.72;7048623;28;20214;-80
2022/11/21 11:33:50;;;;;;;4.67;1.90;;;;;;;16.16;40.21;97607.97;7042781;28;20651;-80
2022/11/21 11:37:13;;;;;;;3.37;1.90;;;;;;;15.68;42.39;97627.41;7051613;28;20219;-80
2022/11/21 11:40:37;;;;;;;5.47;2.17;;;;;;;14.98;44.78;97618.06;7034719;28;20678;-80
2022/11/21 11:47:49;;;;;;;4.33;2.20;;;;;;;13.94;46.86;97599.75;7033648;28;20241;-79
2022/11/21 11:51:18;;;;;;;4.17;2.40;;;;;;;13.32;48.33;97617.44;7033632;28;20226;-80
2022/11/21 11:54:45;;;;;;;5.67;2.60;;;;;;;13.27;48.38;97614.69;7033594;28;20230;-80
2022/11/21 11:58:13;;;;;;;2.23;1.93;;;;;;;13.45;47.01;97549.41;7075030;28;20228;-80
2022/11/21 12:01:37;;;;;;;3.30;2.03;;;;;;;13.96;46.90;97611.16;7068529;28;20232;-80
2022/11/21 12:05:03;;;;;;;4.00;2.10;;;;;;;14.61;45.53;97582.78;7067099;28;20291;-81
2022/11/21 12:08:27;;;;;;;4.80;2.30;;;;;;;14.94;44.01;97585.19;7048101;28;20302;-80
2022/11/21 12:12:08;;;;;;;4.43;1.73;;;;;;;15.20;43.36;97567.13;7040616;28;20221;-81
2022/11/21 12:19:12;;;;;;;6.27;2.43;;;;;;;15.44;41.66;97557.47;7037091;28;20289;-80
2022/11/21 12:22:35;;;;;;;6.27;2.57;;;;;;;15.00;41.97;97504.59;7038385;28;20209;-80
2022/11/21 12:26:09;;;;;;;3.93;2.00;;;;;;;15.38;42.31;97542.25;7037808;28;20604;-80
2022/11/21 12:29:38;;;;;;;5.40;2.20;;;;;;;15.98;41.63;97537.00;7045923;28;20224;-81
2022/11/21 12:33:05;;;;;;;3.97;2.00;;;;;;;16.35;40.49;97538.34;7038445;28;20812;-82
2022/11/21 12:36:34;;;;;;;4.20;1.90;;;;;;;15.92;41.70;97533.44;7041653;28;20254;-81
2022/11/21 12:40:07;;;;;;;5.40;2.20;;;;;;;15.15;41.34;97515.53;7069237;28;20572;-82
2022/11/21 12:43:32;;;;;;;3.33;1.60;;;;;;;14.49;41.28;97514.34;7069550;28;20258;-80
2022/11/21 12:47:05;;;;;;;3.97;2.07;;;;;;;14.36;41.51;97519.41;7067790;28;20232;-82
2022/11/21 12:54:32;;;;;;;4.70;2.07;;;;;;;14.74;40.44;97495.50;6967642;28;20209;-82
2022/11/21 12:58:07;;;;;;;1.93;1.60;;;;;;;15.11;40.52;97488.06;7042395;28;20236;-82
2022/11/21 13:01:34;;;;;;;3.20;1.60;;;;;;;14.54;41.49;97478.31;7046846;28;20245;-82
2022/11/21 13:04:57;;;;;;;2.70;1.77;;;;;;;15.10;40.58;97475.59;7054857;28;20282;-82
2022/11/21 13:08:22;;;;;;;3.07;1.63;;;;;;;16.17;38.77;97462.75;7056064;28;20337;-82
2022/11/21 13:12:00;;;;;;;5.53;2.03;;;;;;;16.35;37.28;97454.03;7059971;28;20205;-81
2022/11/21 13:15:27;;;;;;;5.23;1.80;;;;;;;16.24;38.00;97446.19;7061374;28;20231;-79
2022/11/21 13:18:49;;;;;;;3.00;1.67;;;;;;;16.62;36.40;97402.88;7066743;28;20223;-80
2022/11/21 13:22:44;;;;;;;2.30;1.90;;;;;;;17.02;36.41;97432.66;7069858;28;20204;-80
2022/11/21 13:26:47;;;;;;;2.17;1.60;;;;;;;15.50;39.13;97424.16;7063135;28;20267;-80
2022/11/21 13:30:24;;;;;;;4.67;2.00;;;;;;;15.76;38.00;97423.06;7022987;28;20278;-80
2022/11/21 13:33:48;;;;;;;2.87;1.70;;;;;;;16.02;38.76;97429.31;7038307;28;20585;-80
2022/11/21 13:37:45;;;;;;;6.30;1.93;;;;;;;16.00;37.87;97394.28;7057288;28;20224;-80
2022/11/21 13:44:46;;;;;;;3.93;1.90;;;;;;;16.93;37.33;97409.03;7035284;28;20213;-81
2022/11/21 13:48:26;;;;;;;4.27;1.87;;;;;;;16.48;37.42;97381.97;7050343;28;20256;-81
2022/11/21 13:51:51;;;;;;;3.17;1.90;;;;;;;16.44;38.26;97395.31;7065602;28;20314;-81
2022/11/21 13:55:29;;;;;;;4.07;1.73;;;;;;;16.62;37.77;97385.72;7067022;28;20550;-81
2022/11/21 13:58:59;;;;;;;3.57;2.03;;;;;;;15.57;38.49;97362.22;7065063;28;20197;-81
2022/11/21 14:02:37;;;;;;;4.30;1.97;;;;;;;16.03;38.87;97373.88;7074555;28;20209;-83
2022/11/21 14:06:19;;;;;;;5.57;2.20;;;;;;;15.80;38.97;97372.53;7075876;28;20227;-81
2022/11/21 14:09:48;;;;;;;4.27;2.20;;;;;;;15.70;39.55;97360.88;7068209;28;20255;-80
2022/11/21 14:13:21;;;;;;;4.87;2.10;;;;;;;16.10;39.18;97349.94;7063505;28;20199;-79
2022/11/21 14:16:47;;;;;;;3.63;2.37;;;;;;;15.93;38.78;97347.50;7062567;28;20236;-80
2022/11/21 14:20:15;;;;;;;5.23;2.10;;;;;;;15.88;38.98;97331.25;7056482;28;20215;-80
2022/11/21 14:23:44;;;;;;;3.10;1.97;;;;;;;15.87;39.05;97332.31;7043577;28;20258;-79
2022/11/21 14:27:06;;;;;;;4.70;2.27;;;;;;;16.00;38.40;97342.63;7032877;28;20285;-80
2022/11/21 14:30:33;;;;;;;6.47;2.20;;;;;;;15.90;39.52;97333.66;7033919;28;20288;-80
2022/11/21 14:33:57;;;;;;;7.00;2.40;;;;;;;15.74;39.41;97330.16;7034457;28;20585;-79
2022/11/21 14:37:18;;;;;;;8.47;2.20;;;;;;;15.64;39.82;97313.06;7051989;28;20223;-79
2022/11/21 14:40:41;;;;;;;4.97;2.30;;;;;;;15.34;40.79;97323.91;7063469;28;20676;-79
2022/11/21 14:44:05;;;;;;;3.07;2.30;;;;;;;15.46;40.84;97319.03;7062324;28;20232;-79
2022/11/21 14:47:28;;;;;;;3.80;2.07;;;;;;;15.39;41.48;97315.78;7062112;28;20304;-79
2022/11/21 14:50:50;;;;;;;4.03;2.43;;;;;;;15.05;42.47;97326.28;7061325;28;20223;-80
2022/11/21 14:54:13;;;;;;;4.00;2.47;;;;;;;14.98;42.78;97320.31;7066964;28;20500;-79
2022/11/21 14:57:40;;;;;;;4.13;2.37;;;;;;;14.86;43.37;97302.66;7062416;28;20228;-80
2022/11/21 15:01:02;;;;;;;6.37;2.90;;;;;;;14.80;44.39;97282.81;7061042;28;20230;-79
2022/11/21 15:04:29;;;;;;;7.73;2.67;;;;;;;14.65;45.50;97295.53;7055027;28;20242;-79
2022/11/21 15:07:51;;;;;;;10.03;3.33;;;;;;;14.06;46.79;97286.06;7059060;28;20269;-79
2022/11/21 15:11:15;;;;;;;6.57;3.10;;;;;;;14.21;46.49;97270.72;7057484;28;20232;-80
2022/11/21 15:14:42;;;;;;;4.33;2.70;;;;;;;14.17;46.70;97253.31;7040957;28;20228;-79
2022/11/21 15:18:06;;;;;;;8.73;3.43;;;;;;;14.10;46.43;97236.50;7052785;28;20224;-79
2022/11/21 15:21:27;;;;;;;6.50;3.30;;;;;;;13.94;47.16;97231.28;7044854;28;20232;-80
2022/11/21 15:24:50;;;;;;;5.50;3.37;;;;;;;13.96;47.30;97221.81;7030833;28;20851;-80
2022/11/21 15:28:15;;;;;;;9.00;4.73;;;;;;;13.70;47.93;97217.34;7033071;28;20228;-80
2022/11/21 15:31:38;;;;;;;4.33;3.47;;;;;;;13.41;47.88;97201.75;7033115;28;20194;-82
2022/11/21 15:35:00;;;;;;;4.67;3.00;;;;;;;13.30;48.80;97209.00;7033086;28;20201;-83
2022/11/21 15:38:32;;;;;;;4.60;3.03;;;;;;;13.32;48.83;97193.31;7054635;28;20235;-82
2022/11/21 15:41:53;;;;;;;7.27;3.60;;;;;;;12.26;50.13;97088.09;7068260;28;20237;-85
2022/11/21 15:45:24;;;;;;;6.47;3.20;;;;;;;12.84;49.75;97149.38;7067147;28;20231;-83
2022/11/21 15:48:48;;;;;;;6.87;3.23;;;;;;;13.01;48.44;97156.31;7070678;28;20192;-85
2022/11/21 15:52:11;;;;;;;4.73;2.70;;;;;;;12.74;48.82;97127.69;7063290;28;20212;-85
2022/11/21 15:55:33;;;;;;;3.13;2.83;;;;;;;12.83;48.83;97143.16;7039757;28;20209;-86
2022/11/21 15:58:54;;;;;;;9.33;4.23;;;;;;;12.45;51.36;97135.25;7051021;28;20208;-84
2022/11/21 16:02:16;;;;;;;7.83;3.10;;;;;;;12.71;49.77;97103.84;7053046;28;20201;-86
2022/11/21 16:05:39;;;;;;;3.07;2.67;;;;;;;12.57;49.22;97118.91;7037619;28;20319;-85
2022/11/21 16:09:01;;;;;;;5.17;2.60;;;;;;;12.28;48.73;97075.13;7056468;28;20200;-87
2022/11/21 16:12:22;;;;;;;8.20;3.27;;;;;;;12.30;50.33;97121.63;7050308;28;20497;-85
2022/11/21 16:15:46;;;;;;;6.13;4.17;;;;;;;12.33;49.84;97104.09;7067572;28;20273;-84
2022/11/21 16:19:09;;;;;;;4.97;2.87;;;;;;;11.75;51.73;97090.56;7069046;28;20204;-83
2022/11/21 16:22:32;;;;;;;9.23;3.30;;;;;;;11.78;50.83;97101.66;7063082;28;20211;-84
2022/11/21 16:25:54;;;;;;;4.97;2.97;;;;;;;11.81;50.72;97090.34;7041287;28;20229;-84
2022/11/21 16:29:16;;;;;;;7.40;2.60;;;;;;;11.22;51.62;97063.47;7041799;28;20204;-84
2022/11/21 16:32:38;;;;;;;4.37;2.80;;;;;;;11.61;51.54;97100.09;7040595;28;20212;-86
2022/11/21 16:35:59;;;;;;;6.87;2.93;;;;;;;11.37;50.87;97031.25;7041345;28;20278;-86
2022/11/21 16:39:22;;;;;;;6.33;2.90;;;;;;;11.51;50.96;97063.00;7050914;28;20233;-86
2022/11/21 16:42:47;;;;;;;8.50;4.63;;;;;;;11.38;51.65;97059.84;7047509;28;20234;-85
2022/11/21 16:46:09;;;;;;;8.20;5.20;;;;;;;11.35;52.08;97060.38;7044681;28;20232;-85